createdAt,value
2023-01-19T00:02:25.683Z,25.17
2023-01-19T00:05:08.179Z,25.18
2023-01-19T00:07:41.182Z,25.20
2023-01-19T00:10:13.406Z,25.18
2023-01-19T00:12:46.912Z,25.24
2023-01-19T00:18:16.595Z,25.27
2023-01-19T00:20:52.158Z,25.27
2023-01-19T00:23:23.443Z,25.27
2023-01-19T00:25:54.915Z,25.27
2023-01-19T00:28:25.850Z,25.25
2023-01-19T00:30:57.565Z,25.18
2023-01-19T00:33:27.967Z,25.18
2023-01-19T00:35:59.231Z,25.21
2023-01-19T00:38:30.653Z,25.21
2023-01-19T00:41:02.064Z,25.21
2023-01-19T00:43:35.305Z,25.18
2023-01-19T00:46:17.327Z,25.12
2023-01-19T00:48:48.673Z,25.08
2023-01-19T00:51:20.962Z,25.03
2023-01-19T00:53:51.949Z,25.00
2023-01-19T00:56:24.538Z,24.98
2023-01-19T00:58:58.444Z,24.94
2023-01-19T01:01:46.005Z,24.98
2023-01-19T01:04:16.918Z,25.06
2023-01-19T01:06:48.469Z,25.10
2023-01-19T01:09:20.317Z,25.08
2023-01-19T01:11:52.165Z,25.12
2023-01-19T01:14:24.899Z,25.18
2023-01-19T01:16:56.062Z,25.15
2023-01-19T01:19:26.821Z,25.15
2023-01-19T01:22:00.297Z,25.21
2023-01-19T01:24:31.513Z,25.18
2023-01-19T01:27:02.716Z,25.14
2023-01-19T01:29:48.255Z,25.15
2023-01-19T01:32:20.954Z,25.18
2023-01-19T01:34:53.408Z,25.12
2023-01-19T01:37:24.374Z,25.11
2023-01-19T01:39:56.018Z,25.10
2023-01-19T01:42:36.352Z,25.10
2023-01-19T01:45:25.958Z,25.08
2023-01-19T01:48:07.725Z,25.10
2023-01-19T01:51:05.537Z,25.10
2023-01-19T01:53:38.543Z,25.14
2023-01-19T01:56:17.830Z,25.12
2023-01-19T01:58:50.199Z,25.14
2023-01-19T02:01:39.697Z,25.12
2023-01-19T02:04:11.934Z,25.15
2023-01-19T02:07:03.683Z,25.12
2023-01-19T02:09:55.620Z,25.12
2023-01-19T02:12:48.250Z,25.15
2023-01-19T02:18:15.243Z,25.17
2023-01-19T02:21:21.230Z,25.20
2023-01-19T02:24:00.122Z,25.17
2023-01-19T02:26:43.678Z,25.17
2023-01-19T02:29:17.211Z,25.12
2023-01-19T02:31:49.837Z,25.08
2023-01-19T02:34:23.573Z,25.08
2023-01-19T02:37:07.808Z,25.15
2023-01-19T02:39:50.014Z,25.15
2023-01-19T02:42:35.575Z,25.14
2023-01-19T02:45:08.928Z,25.11
2023-01-19T02:47:47.870Z,25.08
2023-01-19T02:50:45.787Z,25.07
2023-01-19T02:53:35.317Z,25.03
2023-01-19T02:56:31.004Z,25.01
2023-01-19T02:59:19.397Z,24.95
2023-01-19T03:01:56.717Z,24.94
2023-01-19T03:05:08.407Z,24.98
2023-01-19T03:08:00.412Z,24.97
2023-01-19T03:10:51.566Z,24.95
2023-01-19T03:13:49.752Z,24.97
2023-01-19T03:16:43.068Z,24.92
2023-01-19T03:19:41.319Z,24.92
2023-01-19T03:22:19.542Z,24.91
2023-01-19T03:24:55.110Z,24.91
2023-01-19T03:27:35.095Z,24.92
2023-01-19T03:30:13.054Z,24.92
2023-01-19T03:33:00.595Z,24.92
2023-01-19T03:35:35.967Z,24.95
2023-01-19T03:38:12.918Z,24.91
2023-01-19T03:40:45.352Z,24.95
2023-01-19T03:43:21.174Z,24.90
2023-01-19T03:45:55.583Z,24.92
2023-01-19T03:48:28.131Z,24.90
2023-01-19T03:51:00.247Z,24.88
2023-01-19T03:53:32.954Z,24.84
2023-01-19T03:56:05.779Z,24.81
2023-01-19T03:58:37.155Z,24.80
2023-01-19T04:01:08.219Z,24.84
2023-01-19T04:03:38.708Z,24.84
2023-01-19T04:06:10.578Z,24.87
2023-01-19T04:08:43.086Z,24.86
2023-01-19T04:11:19.929Z,24.87
2023-01-19T04:13:51.185Z,24.81
2023-01-19T04:16:23.707Z,24.79
2023-01-19T04:18:55.583Z,24.71
2023-01-19T04:21:28.406Z,24.70
2023-01-19T04:23:59.470Z,24.66
2023-01-19T04:26:32.441Z,24.67
2023-01-19T04:29:04.490Z,24.70
2023-01-19T04:31:37.723Z,24.73
2023-01-19T04:34:11.175Z,24.79
2023-01-19T04:36:42.509Z,24.74
2023-01-19T04:39:14.072Z,24.79
2023-01-19T04:41:45.623Z,24.81
2023-01-19T04:44:16.831Z,24.83
2023-01-19T04:46:47.947Z,24.83
2023-01-19T04:49:20.454Z,24.84
2023-01-19T04:51:53.918Z,24.81
2023-01-19T04:54:25.707Z,24.84
2023-01-19T04:56:56.598Z,24.86
2023-01-19T04:59:30.958Z,24.87
2023-01-19T05:02:05.112Z,24.84
2023-01-19T05:04:40.580Z,24.86
2023-01-19T05:07:13.610Z,24.84
2023-01-19T05:09:44.904Z,24.87
2023-01-19T05:12:15.798Z,24.86
2023-01-19T05:14:50.966Z,24.84
2023-01-19T05:17:21.922Z,24.87
2023-01-19T05:19:55.778Z,24.81
2023-01-19T05:22:27.349Z,24.81
2023-01-19T05:24:59.154Z,24.83
2023-01-19T05:27:30.919Z,24.80
2023-01-19T05:30:07.137Z,24.81
2023-01-19T05:32:38.301Z,24.84
2023-01-19T05:35:12.411Z,24.81
2023-01-19T05:37:42.597Z,24.80
2023-01-19T05:40:14.912Z,24.84
2023-01-19T05:42:48.375Z,24.83
2023-01-19T05:45:25.851Z,24.74
2023-01-19T05:47:58.108Z,24.61
2023-01-19T05:50:31.747Z,24.70
2023-01-19T05:53:05.252Z,24.73
2023-01-19T05:55:39.839Z,24.56
2023-01-19T05:58:11.258Z,24.56
2023-01-19T06:00:43.661Z,24.64
2023-01-19T06:03:14.891Z,24.69
2023-01-19T06:05:48.181Z,24.69
2023-01-19T06:08:21.277Z,24.73
2023-01-19T06:10:52.231Z,24.76
2023-01-19T06:13:23.098Z,24.76
2023-01-19T06:16:06.119Z,24.79
2023-01-19T06:18:40.315Z,24.79
2023-01-19T06:21:14.500Z,24.77
2023-01-19T06:23:48.101Z,24.76
2023-01-19T06:26:22.343Z,24.77
2023-01-19T06:28:54.778Z,24.77
2023-01-19T06:31:29.275Z,24.80
2023-01-19T06:34:00.956Z,24.76
2023-01-19T06:36:31.935Z,24.66
2023-01-19T06:39:08.762Z,24.60
2023-01-19T06:41:43.766Z,24.50
2023-01-19T06:44:16.719Z,24.44
2023-01-19T06:46:48.415Z,24.41
2023-01-19T06:49:19.318Z,24.41
2023-01-19T06:51:50.313Z,24.37
2023-01-19T06:54:21.825Z,24.41
2023-01-19T06:56:54.953Z,24.41
2023-01-19T06:59:27.984Z,24.46
2023-01-19T07:01:59.139Z,24.40
2023-01-19T07:04:31.161Z,24.40
2023-01-19T07:07:02.588Z,24.37
2023-01-19T07:09:36.673Z,24.33
2023-01-19T07:12:12.575Z,24.36
2023-01-19T07:14:44.472Z,24.37
2023-01-19T07:17:15.493Z,24.41
2023-01-19T07:19:46.912Z,24.46
2023-01-19T07:22:21.052Z,24.49
2023-01-19T07:24:55.867Z,24.55
2023-01-19T07:27:31.168Z,24.60
2023-01-19T07:30:06.843Z,24.59
2023-01-19T07:32:37.815Z,24.60
2023-01-19T07:35:09.338Z,24.61
2023-01-19T07:37:40.508Z,24.57
2023-01-19T07:40:11.905Z,24.56
2023-01-19T07:42:46.006Z,24.57
2023-01-19T07:45:20.380Z,24.57
2023-01-19T07:47:52.927Z,24.59
2023-01-19T07:50:26.298Z,24.46
2023-01-19T07:53:00.587Z,24.43
2023-01-19T07:55:31.688Z,24.41
2023-01-19T07:58:02.088Z,24.46
2023-01-19T08:00:35.171Z,24.43
2023-01-19T08:03:11.567Z,24.40
2023-01-19T08:05:41.951Z,24.32
2023-01-19T08:08:19.918Z,24.28
2023-01-19T08:10:54.776Z,24.29
2023-01-19T08:13:25.042Z,24.36
2023-01-19T08:15:58.489Z,24.33
2023-01-19T08:18:32.138Z,24.32
2023-01-19T08:21:03.027Z,24.30
2023-01-19T08:23:34.923Z,24.28
2023-01-19T08:26:31.118Z,24.22
2023-01-19T08:29:05.525Z,24.19
2023-01-19T08:31:39.240Z,24.23
2023-01-19T08:34:11.168Z,24.18
2023-01-19T08:36:43.225Z,24.16
2023-01-19T08:39:14.910Z,24.15
2023-01-19T08:41:48.678Z,24.13
2023-01-19T08:44:20.513Z,24.19
2023-01-19T08:46:52.316Z,24.16
2023-01-19T08:49:23.859Z,24.20
2023-01-19T08:51:55.593Z,24.28
2023-01-19T08:54:28.192Z,24.36
2023-01-19T08:56:59.164Z,24.41
2023-01-19T08:59:32.346Z,24.47
2023-01-19T09:02:07.152Z,24.50
2023-01-19T09:04:40.496Z,24.55
2023-01-19T09:07:12.081Z,24.60
2023-01-19T09:09:45.779Z,24.69
2023-01-19T09:12:17.402Z,24.95
2023-01-19T09:14:53.079Z,25.21
2023-01-19T09:17:23.972Z,25.27
2023-01-19T09:19:56.718Z,25.24
2023-01-19T09:22:29.441Z,25.07
2023-01-19T09:25:00.905Z,24.94
2023-01-19T09:27:32.673Z,24.83
2023-01-19T09:30:04.275Z,24.81
2023-01-19T09:32:35.718Z,24.91
2023-01-19T09:35:07.414Z,25.00
2023-01-19T09:37:39.864Z,25.00
2023-01-19T09:40:13.163Z,25.03
2023-01-19T09:43:30.620Z,25.06
2023-01-19T09:46:05.731Z,24.98
2023-01-19T09:49:01.948Z,25.04
2023-01-19T09:51:45.739Z,25.15
2023-01-19T09:54:31.649Z,25.45
2023-01-19T09:57:02.918Z,25.57
2023-01-19T09:59:37.981Z,25.68
2023-01-19T10:02:34.407Z,25.73
2023-01-19T10:05:33.377Z,25.86
2023-01-19T10:08:16.689Z,26.02
2023-01-19T10:10:57.720Z,26.23
2023-01-19T10:13:49.624Z,26.24
2023-01-19T10:17:10.930Z,26.20
2023-01-19T10:19:55.582Z,26.17
2023-01-19T10:22:30.635Z,26.17
2023-01-19T10:25:11.312Z,26.16
2023-01-19T10:27:46.748Z,26.20
2023-01-19T10:30:36.160Z,26.30
2023-01-19T10:33:07.436Z,26.34
2023-01-19T10:35:42.101Z,26.41
2023-01-19T10:38:17.723Z,26.48
2023-01-19T10:41:06.191Z,26.50
2023-01-19T10:43:38.046Z,26.29
2023-01-19T10:46:19.337Z,26.27
2023-01-19T10:48:57.733Z,26.14
2023-01-19T10:51:31.406Z,26.20
2023-01-19T10:54:06.359Z,26.27
2023-01-19T10:56:40.078Z,26.14
2023-01-19T10:59:35.901Z,25.81
2023-01-19T11:02:25.616Z,25.45
2023-01-19T11:04:58.661Z,25.24
2023-01-19T11:07:29.558Z,25.17
2023-01-19T11:10:19.968Z,25.11
2023-01-19T11:13:18.588Z,25.21
2023-01-19T11:15:53.956Z,25.43
2023-01-19T11:18:34.086Z,25.53
2023-01-19T11:21:13.625Z,25.63
2023-01-19T11:23:49.623Z,25.72
2023-01-19T11:26:47.479Z,25.78
2023-01-19T11:29:27.344Z,25.95
2023-01-19T11:32:15.211Z,25.93
2023-01-19T11:34:46.821Z,26.00
2023-01-19T11:37:24.177Z,26.12
2023-01-19T11:40:01.772Z,26.17
2023-01-19T11:42:35.429Z,26.27
2023-01-19T11:45:19.731Z,26.30
2023-01-19T11:47:51.732Z,26.41
2023-01-19T11:50:30.569Z,26.17
2023-01-19T11:53:09.862Z,25.88
2023-01-19T11:56:14.801Z,25.65
2023-01-19T11:58:51.719Z,25.34
2023-01-19T12:01:37.117Z,25.75
2023-01-19T12:04:42.552Z,26.70
2023-01-19T12:07:18.657Z,27.07
2023-01-19T12:10:01.468Z,26.70
2023-01-19T12:12:40.964Z,26.43
2023-01-19T12:15:33.651Z,26.41
2023-01-19T12:18:09.807Z,26.48
2023-01-19T12:20:47.357Z,26.87
2023-01-19T12:23:24.953Z,27.62
2023-01-19T12:26:07.958Z,27.65
2023-01-19T12:28:50.409Z,27.19
2023-01-19T12:31:24.888Z,26.76
2023-01-19T12:33:56.163Z,26.37
2023-01-19T12:36:41.184Z,25.93
2023-01-19T12:39:31.035Z,25.88
2023-01-19T12:42:21.266Z,25.82
2023-01-19T12:45:16.835Z,25.97
2023-01-19T12:48:01.573Z,25.97
2023-01-19T12:50:40.829Z,26.12
2023-01-19T12:53:26.128Z,26.43
2023-01-19T12:56:10.814Z,26.54
2023-01-19T12:58:41.692Z,26.80
2023-01-19T13:01:20.990Z,27.24
2023-01-19T13:04:29.398Z,27.50
2023-01-19T13:07:12.987Z,27.55
2023-01-19T13:09:45.411Z,28.01
2023-01-19T13:12:30.861Z,28.04
2023-01-19T13:15:32.934Z,27.69
2023-01-19T13:18:06.740Z,28.07
2023-01-19T13:20:56.154Z,27.96
2023-01-19T13:23:53.116Z,28.33
2023-01-19T13:26:40.115Z,28.98
2023-01-19T13:29:32.585Z,29.57
2023-01-19T13:32:16.033Z,29.65
2023-01-19T13:35:12.104Z,29.26
2023-01-19T13:37:48.557Z,28.84
2023-01-19T13:40:37.697Z,29.55
2023-01-19T13:43:30.210Z,30.44
2023-01-19T13:46:02.640Z,30.99
2023-01-19T13:48:37.948Z,31.29
2023-01-19T13:51:20.100Z,32.44
2023-01-19T13:54:01.885Z,30.99
2023-01-19T13:56:32.793Z,30.18
2023-01-19T13:59:12.922Z,29.52
2023-01-19T14:01:47.402Z,29.42
2023-01-19T14:04:36.587Z,29.57
2023-01-19T14:07:16.750Z,29.73
2023-01-19T14:09:49.760Z,29.70
2023-01-19T14:12:21.185Z,29.33
2023-01-19T14:14:53.063Z,29.32
2023-01-19T14:17:31.412Z,29.47
2023-01-19T14:20:07.787Z,29.26
2023-01-19T14:22:46.036Z,29.14
2023-01-19T14:25:37.692Z,29.08
2023-01-19T14:28:30.720Z,28.78
2023-01-19T14:31:31.393Z,28.68
2023-01-19T14:34:04.296Z,28.71
2023-01-19T14:36:41.860Z,28.94
2023-01-19T14:39:31.904Z,29.26
2023-01-19T14:42:07.302Z,29.46
2023-01-19T14:44:43.234Z,29.72
2023-01-19T14:47:42.703Z,30.08
2023-01-19T14:50:38.475Z,30.48
2023-01-19T14:53:32.129Z,30.38
2023-01-19T14:56:08.534Z,30.28
2023-01-19T14:58:39.533Z,30.74
2023-01-19T15:01:14.215Z,31.09
2023-01-19T15:03:50.027Z,31.23
2023-01-19T15:06:24.575Z,30.59
2023-01-19T15:08:55.691Z,30.03
2023-01-19T15:11:38.908Z,29.69
2023-01-19T15:14:19.421Z,29.47
2023-01-19T15:16:51.719Z,29.47
2023-01-19T15:19:24.240Z,29.42
2023-01-19T15:21:56.021Z,29.52
2023-01-19T15:24:26.877Z,29.40
2023-01-19T15:27:04.148Z,29.06
2023-01-19T15:29:38.204Z,28.55
2023-01-19T15:32:18.526Z,28.23
2023-01-19T15:34:49.491Z,28.06
2023-01-19T15:37:23.417Z,28.01
2023-01-19T15:39:55.950Z,28.04
2023-01-19T15:42:31.193Z,28.10
2023-01-19T15:45:03.691Z,28.27
2023-01-19T15:47:42.786Z,28.17
2023-01-19T15:50:16.403Z,28.11
2023-01-19T15:52:49.895Z,28.03
2023-01-19T15:55:24.519Z,27.55
2023-01-19T15:58:07.629Z,27.27
2023-01-19T16:00:46.953Z,27.25
2023-01-19T16:03:23.526Z,27.35
2023-01-19T16:06:05.797Z,27.88
2023-01-19T16:08:37.379Z,27.25
2023-01-19T16:11:10.294Z,27.14
2023-01-19T16:13:49.578Z,27.22
2023-01-19T16:16:25.648Z,27.38
2023-01-19T16:18:58.045Z,27.70
2023-01-19T16:21:30.486Z,27.74
2023-01-19T16:24:04.038Z,28.00
2023-01-19T16:26:37.060Z,28.30
2023-01-19T16:29:13.685Z,28.50
2023-01-19T16:31:45.068Z,28.58
2023-01-19T16:34:17.915Z,28.18
2023-01-19T16:36:48.474Z,28.10
2023-01-19T16:39:19.352Z,28.11
2023-01-19T16:41:49.601Z,28.25
2023-01-19T16:44:19.949Z,28.41
2023-01-19T16:46:51.332Z,28.60
2023-01-19T16:49:24.291Z,28.58
2023-01-19T16:52:00.505Z,28.45
2023-01-19T16:54:32.166Z,28.47
2023-01-19T16:57:02.398Z,28.47
2023-01-19T16:59:32.668Z,28.48
2023-01-19T17:02:02.648Z,28.13
2023-01-19T17:04:35.030Z,27.70
2023-01-19T17:07:07.110Z,27.55
2023-01-19T17:09:37.329Z,27.39
2023-01-19T17:12:10.544Z,27.34
2023-01-19T17:14:41.261Z,27.22
2023-01-19T17:17:11.671Z,27.25
2023-01-19T17:19:42.994Z,27.38
2023-01-19T17:22:14.327Z,27.42
2023-01-19T17:24:45.079Z,27.45
2023-01-19T17:27:15.089Z,27.48
2023-01-19T17:29:45.116Z,27.48
2023-01-19T17:32:15.359Z,27.67
2023-01-19T17:34:48.064Z,27.88
2023-01-19T17:37:18.272Z,28.10
2023-01-19T17:39:48.286Z,28.25
2023-01-19T17:42:18.592Z,28.36
2023-01-19T17:44:48.656Z,28.43
2023-01-19T17:47:18.844Z,28.69
2023-01-19T17:49:48.969Z,28.48
2023-01-19T17:52:19.152Z,28.33
2023-01-19T17:54:48.897Z,27.96
2023-01-19T17:57:18.963Z,27.78
2023-01-19T17:59:49.263Z,27.92
2023-01-19T18:02:19.622Z,27.90
2023-01-19T18:04:49.666Z,27.65
2023-01-19T18:07:20.592Z,27.35
2023-01-19T18:09:50.708Z,27.15
2023-01-19T18:12:22.272Z,27.04
2023-01-19T18:14:52.859Z,27.14
2023-01-19T18:17:22.890Z,27.19
2023-01-19T18:19:53.747Z,27.22
2023-01-19T18:22:24.546Z,27.27
2023-01-19T18:24:55.815Z,27.19
2023-01-19T18:27:27.930Z,27.34
2023-01-19T18:29:59.240Z,27.52
2023-01-19T18:32:30.982Z,27.49
2023-01-19T18:35:01.286Z,27.45
2023-01-19T18:37:31.389Z,27.28
2023-01-19T18:40:05.645Z,27.04
2023-01-19T18:42:36.694Z,27.05
2023-01-19T18:45:08.545Z,26.92
2023-01-19T18:47:40.201Z,26.94
2023-01-19T18:50:11.220Z,27.01
2023-01-19T18:52:43.957Z,27.25
2023-01-19T18:55:22.242Z,27.39
2023-01-19T18:57:52.992Z,27.41
2023-01-19T19:00:23.565Z,27.59
2023-01-19T19:02:54.699Z,27.60
2023-01-19T19:05:25.288Z,27.86
2023-01-19T19:07:55.345Z,28.07
2023-01-19T19:10:25.587Z,27.99
2023-01-19T19:13:01.576Z,27.86
2023-01-19T19:15:33.687Z,27.63
2023-01-19T19:18:04.343Z,27.37
2023-01-19T19:20:34.346Z,27.07
2023-01-19T19:23:04.759Z,26.88
2023-01-19T19:25:36.018Z,26.68
2023-01-19T19:28:06.553Z,26.57
2023-01-19T19:30:39.121Z,26.34
2023-01-19T19:33:09.579Z,26.32
2023-01-19T19:35:39.646Z,26.43
2023-01-19T19:38:10.345Z,26.50
2023-01-19T19:40:40.438Z,26.51
2023-01-19T19:43:10.848Z,26.47
2023-01-19T19:45:42.279Z,26.44
2023-01-19T19:48:12.441Z,26.68
2023-01-19T19:50:42.657Z,26.71
2023-01-19T19:53:12.879Z,26.70
2023-01-19T19:55:42.902Z,26.80
2023-01-19T19:58:13.261Z,27.04
2023-01-19T20:00:47.246Z,27.34
2023-01-19T20:03:17.944Z,27.63
2023-01-19T20:05:48.826Z,27.53
2023-01-19T20:08:19.141Z,27.34
2023-01-19T20:10:48.886Z,27.18
2023-01-19T20:13:20.735Z,27.15
2023-01-19T20:15:50.971Z,27.07
2023-01-19T20:18:21.505Z,26.97
2023-01-19T20:20:51.394Z,27.05
2023-01-19T20:23:21.401Z,26.85
2023-01-19T20:25:51.661Z,26.73
2023-01-19T20:28:21.772Z,26.60
2023-01-19T20:30:51.991Z,26.41
2023-01-19T20:33:22.031Z,26.29
2023-01-19T20:35:53.402Z,26.23
2023-01-19T20:38:23.275Z,26.16
2023-01-19T20:40:54.851Z,26.06
2023-01-19T20:43:25.339Z,26.00
2023-01-19T20:45:55.377Z,25.96
2023-01-19T20:48:25.387Z,25.93
2023-01-19T20:51:03.259Z,25.93
2023-01-19T20:53:34.028Z,25.89
2023-01-19T20:56:13.620Z,25.88
2023-01-19T20:58:44.706Z,25.92
2023-01-19T21:01:24.654Z,25.97
2023-01-19T21:03:55.209Z,25.95
2023-01-19T21:06:26.385Z,25.93
2023-01-19T21:08:57.528Z,25.96
2023-01-19T21:11:28.434Z,25.96
2023-01-19T21:13:59.039Z,26.06
2023-01-19T21:16:31.254Z,26.03
2023-01-19T21:19:02.665Z,26.07
2023-01-19T21:21:32.851Z,26.10
2023-01-19T21:24:05.506Z,26.09
2023-01-19T21:26:36.511Z,26.09
2023-01-19T21:29:06.685Z,26.06
2023-01-19T21:31:37.046Z,26.13
2023-01-19T21:34:07.406Z,26.17
2023-01-19T21:36:37.526Z,26.07
2023-01-19T21:39:09.239Z,26.06
2023-01-19T21:41:41.285Z,26.00
2023-01-19T21:44:15.309Z,25.86
2023-01-19T21:46:46.054Z,25.76
2023-01-19T21:49:20.235Z,25.81
2023-01-19T21:51:54.709Z,25.79
2023-01-19T21:54:24.919Z,25.75
2023-01-19T21:56:55.565Z,25.68
2023-01-19T21:59:25.845Z,25.69
2023-01-19T22:01:55.872Z,25.65
2023-01-19T22:04:26.435Z,25.61
2023-01-19T22:06:56.509Z,25.66
2023-01-19T22:09:26.402Z,25.61
2023-01-19T22:11:56.665Z,25.58
2023-01-19T22:14:27.208Z,25.48
2023-01-19T22:16:57.288Z,25.45
2023-01-19T22:19:27.751Z,25.48
2023-01-19T22:21:58.514Z,25.51
2023-01-19T22:24:28.938Z,25.43
2023-01-19T22:26:59.475Z,25.32
2023-01-19T22:29:29.821Z,25.30
2023-01-19T22:31:59.933Z,25.32
2023-01-19T22:34:30.900Z,25.30
2023-01-19T22:37:04.655Z,25.32
2023-01-19T22:39:35.895Z,25.34
2023-01-19T22:42:06.082Z,25.32
2023-01-19T22:44:36.102Z,25.27
2023-01-19T22:47:06.842Z,25.24
2023-01-19T22:49:36.963Z,25.25
2023-01-19T22:52:10.288Z,25.22
2023-01-19T22:54:40.169Z,25.21
2023-01-19T22:57:13.223Z,25.18
2023-01-19T22:59:45.430Z,25.21
2023-01-19T23:02:16.193Z,25.24
2023-01-19T23:04:50.617Z,25.24
2023-01-19T23:07:21.816Z,25.24
2023-01-19T23:09:55.596Z,25.22
2023-01-19T23:12:27.261Z,25.22
2023-01-19T23:14:57.490Z,25.18
2023-01-19T23:17:27.817Z,25.15
2023-01-19T23:19:58.300Z,25.14
2023-01-19T23:22:29.088Z,25.20
2023-01-19T23:25:00.158Z,25.18
2023-01-19T23:27:30.340Z,25.20
2023-01-19T23:30:00.625Z,25.17
2023-01-19T23:32:31.765Z,25.18
2023-01-19T23:35:02.584Z,25.22
2023-01-19T23:37:34.455Z,25.22
2023-01-19T23:40:05.467Z,25.24
2023-01-19T23:42:35.722Z,25.24
2023-01-19T23:45:06.594Z,25.18
2023-01-19T23:47:38.021Z,25.17
2023-01-19T23:50:08.783Z,25.21
2023-01-19T23:52:38.501Z,25.22
2023-01-19T23:55:10.857Z,25.14
2023-01-19T23:57:41.339Z,25.11
